Columbia Metropolitan Airport
KCAE : now visible

Airfield :











YOU CAN JOIN US ON...

 
LOGIN :

Register | Disclaimer

   EN    FR    IT 

 









Legend :    VFR   Marginal VFR   IFR   Intensive IFR   Very Intensive IFR
Visi :
Ceiling :
>= 8 km
>= 3000ft
5 to 8 km
1000 to 3000 ft
1500m to 5 km
500 to 1000 ft
800 to 1500m
200 to 500 ft
< 800m
< 200 ft
Symbols :   Thunderstorms  Fog  Heavy snow  Heavy precipitations  Wind > 20 kt






- Airport Elevation : 236 ft
- IATA code : CAE


KCAE - Columbia Metropolitan

CURRENT METAR :
  • 242256Z 13006KT 10SM OVC034 12/M02 A3018 RMK AO2 SLP219 T01221022

EXPIRED METARs :
  • 242156Z 14006KT 10SM SCT035 OVC048 13/M04 A3018 RMK AO2 SLP219 T01331039
  • 242056Z 11006KT 10SM BKN045 13/M04 A3018 RMK AO2 SLP218 T01331044 56023
  • 241956Z 09006KT 10SM SCT040 BKN048 BKN210 13/M05 A3018 RMK AO2 SLP221 T01331050

TAF KCAE
Valid from the 24 at 21:00 until the 25 at 18:00 UTC


242057Z 2421/2518 09005KT P6SM BKN035
FM250400 VRB03KT P6SM OVC025
FM251200 VRB03KT 4SM BR BKN007 OVC015
FM251400 VRB03KT 2SM BR OVC006
KZJX FIR / North America



MET'MAP, your aeronautical weather chart ! - Copyright ORBIFLY December 2007 - Disclaimer

ORBIFLY MET'MAP TEAM :

Programming & Development : Alexandra Zaïnal
Concept & original design : Baudouin d'Aumeries
Assistance for programming : Marc-Olivier Méhu
Technical & hardware support : Manuel Goepfert

Contact : metmap@orbifly.com




SOURCES & CREDITS :

   NOAA       Earth
Advisory